createdAt,value
2017-09-03T00:01:25.713Z,84.40
2017-09-03T00:03:52.665Z,83.80
2017-09-03T00:06:19.551Z,83.60
2017-09-03T00:08:46.554Z,83.30
2017-09-03T00:11:13.504Z,84.10
2017-09-03T00:13:40.393Z,83.80
2017-09-03T00:16:07.290Z,83.70
2017-09-03T00:18:34.208Z,84.20
2017-09-03T00:21:01.182Z,84.40
2017-09-03T00:23:28.066Z,84.20
2017-09-03T00:25:55.074Z,84.10
2017-09-03T00:28:21.982Z,83.90
2017-09-03T00:30:48.966Z,83.90
2017-09-03T00:33:15.881Z,83.90
2017-09-03T00:35:42.777Z,84.00
2017-09-03T00:38:09.697Z,83.90
2017-09-03T00:40:36.649Z,84.20
2017-09-03T00:43:03.535Z,84.30
2017-09-03T00:45:30.422Z,84.70
2017-09-03T00:47:57.349Z,84.60
2017-09-03T00:50:24.233Z,84.40
2017-09-03T00:52:51.123Z,84.50
2017-09-03T00:55:18.130Z,84.80
2017-09-03T00:57:45.254Z,84.80
2017-09-03T01:00:12.230Z,84.80
2017-09-03T01:02:39.154Z,84.60
2017-09-03T01:05:06.120Z,84.40
2017-09-03T01:07:33.005Z,84.30
2017-09-03T01:09:59.930Z,84.30
2017-09-03T01:12:26.847Z,84.50
2017-09-03T01:14:53.714Z,83.90
2017-09-03T01:17:20.637Z,83.70
2017-09-03T01:19:47.581Z,84.10
2017-09-03T01:22:14.469Z,84.40
2017-09-03T01:24:41.392Z,85.00
2017-09-03T01:27:08.275Z,84.50
2017-09-03T01:29:35.168Z,84.60
2017-09-03T01:32:02.118Z,84.70
2017-09-03T01:34:29.018Z,84.20
2017-09-03T01:36:55.901Z,84.40
2017-09-03T01:39:22.825Z,84.40
2017-09-03T01:41:49.724Z,84.50
2017-09-03T01:44:16.602Z,84.50
2017-09-03T01:46:43.542Z,84.50
2017-09-03T01:49:10.537Z,84.50
2017-09-03T01:51:37.425Z,84.00
2017-09-03T01:54:04.354Z,84.10
2017-09-03T01:56:31.278Z,84.00
2017-09-03T01:58:58.170Z,84.20
2017-09-03T02:01:25.161Z,84.10
2017-09-03T02:03:52.057Z,84.00
2017-09-03T02:06:18.962Z,83.50
2017-09-03T02:08:45.907Z,83.70
2017-09-03T02:11:12.793Z,84.40
2017-09-03T02:13:39.678Z,84.30
2017-09-03T02:16:06.606Z,84.40
2017-09-03T02:18:33.587Z,84.50
2017-09-03T02:21:00.529Z,84.60
2017-09-03T02:23:27.473Z,85.00
2017-09-03T02:25:54.438Z,84.70
2017-09-03T02:28:21.346Z,84.60
2017-09-03T02:30:48.318Z,84.40
2017-09-03T02:33:15.318Z,84.80
2017-09-03T02:35:42.305Z,84.70
2017-09-03T02:38:09.269Z,84.50
2017-09-03T02:40:36.219Z,84.80
2017-09-03T02:43:03.161Z,84.60
2017-09-03T02:45:30.107Z,84.40
2017-09-03T02:47:57.001Z,84.30
2017-09-03T02:50:23.994Z,84.70
2017-09-03T02:52:50.942Z,84.90
2017-09-03T02:55:17.885Z,84.90
2017-09-03T02:57:44.786Z,84.70
2017-09-03T03:00:11.720Z,84.60
2017-09-03T03:02:38.616Z,84.00
2017-09-03T03:05:05.574Z,83.70
2017-09-03T03:07:32.506Z,83.80
2017-09-03T03:09:59.461Z,84.00
2017-09-03T03:12:26.401Z,84.40
2017-09-03T03:14:53.349Z,84.30
2017-09-03T03:17:20.245Z,84.80
2017-09-03T03:19:47.134Z,84.80
2017-09-03T03:22:14.094Z,84.90
2017-09-03T03:24:40.976Z,85.10
2017-09-03T03:27:07.883Z,84.90
2017-09-03T03:29:34.831Z,84.80
2017-09-03T03:32:01.725Z,84.70
2017-09-03T03:34:28.609Z,84.20
2017-09-03T03:36:55.529Z,84.40
2017-09-03T03:39:22.501Z,84.20
2017-09-03T03:41:49.381Z,84.20
2017-09-03T03:44:16.346Z,84.00
2017-09-03T03:46:43.258Z,84.20
2017-09-03T03:49:10.144Z,84.10
2017-09-03T03:51:37.077Z,84.20
2017-09-03T03:54:03.981Z,84.50
2017-09-03T03:56:30.934Z,84.70
2017-09-03T03:58:57.878Z,84.40
2017-09-03T04:01:24.762Z,84.20
2017-09-03T04:03:51.671Z,84.60
2017-09-03T04:06:18.617Z,84.80
2017-09-03T04:08:45.510Z,84.90
2017-09-03T04:11:12.406Z,84.50
2017-09-03T04:13:39.345Z,84.70
2017-09-03T04:16:06.239Z,84.80
2017-09-03T04:18:33.133Z,84.60
2017-09-03T04:21:00.187Z,84.40
2017-09-03T04:23:27.138Z,84.60
2017-09-03T04:25:54.086Z,84.70
2017-09-03T04:28:21.041Z,84.20
2017-09-03T04:30:47.980Z,83.90
2017-09-03T04:33:14.921Z,84.20
2017-09-03T04:35:41.918Z,84.40
2017-09-03T04:38:08.878Z,84.70
2017-09-03T04:40:35.773Z,84.90
2017-09-03T04:43:02.757Z,85.10
2017-09-03T04:45:29.710Z,84.80
2017-09-03T04:47:56.654Z,84.50
2017-09-03T04:50:23.904Z,84.80
2017-09-03T04:52:50.859Z,84.90
2017-09-03T04:55:17.803Z,84.60
2017-09-03T04:57:44.762Z,84.30
2017-09-03T05:00:11.645Z,84.40
2017-09-03T05:02:38.529Z,84.80
2017-09-03T05:05:05.455Z,84.80
2017-09-03T05:07:32.427Z,84.70
2017-09-03T05:09:59.374Z,84.60
2017-09-03T05:12:26.326Z,84.30
2017-09-03T05:14:53.207Z,84.00
2017-09-03T05:17:20.114Z,84.40
2017-09-03T05:19:47.047Z,84.70
2017-09-03T05:22:13.942Z,85.30
2017-09-03T05:24:40.850Z,85.10
2017-09-03T05:27:07.770Z,85.10
2017-09-03T05:29:34.662Z,85.00
2017-09-03T05:32:01.589Z,84.80
2017-09-03T05:34:28.529Z,84.70
2017-09-03T05:36:55.421Z,84.50
2017-09-03T05:39:22.313Z,84.40
2017-09-03T05:41:49.314Z,84.10
2017-09-03T05:44:16.210Z,83.80
2017-09-03T05:46:43.093Z,83.90
2017-09-03T05:49:10.305Z,83.90
2017-09-03T05:51:37.257Z,83.70
2017-09-03T05:54:04.206Z,83.50
2017-09-03T05:56:31.146Z,83.50
2017-09-03T05:58:58.107Z,83.40
2017-09-03T06:01:24.987Z,83.40
2017-09-03T06:03:51.989Z,83.70
2017-09-03T06:06:18.939Z,83.60
2017-09-03T06:08:45.890Z,83.60
2017-09-03T06:11:12.816Z,83.20
2017-09-03T06:13:39.778Z,82.80
2017-09-03T06:16:06.726Z,82.70
2017-09-03T06:18:33.664Z,82.80
2017-09-03T06:21:00.617Z,82.70
2017-09-03T06:23:27.509Z,82.80
2017-09-03T06:25:54.500Z,82.90
2017-09-03T06:28:21.458Z,82.80
2017-09-03T06:30:48.354Z,82.70
2017-09-03T06:33:15.284Z,82.50
2017-09-03T06:35:42.169Z,82.90
2017-09-03T06:38:09.138Z,82.40
2017-09-03T06:40:36.081Z,82.90
2017-09-03T06:43:02.973Z,83.20
2017-09-03T06:45:29.870Z,83.00
2017-09-03T06:47:56.825Z,82.60
2017-09-03T06:50:23.727Z,82.30
2017-09-03T06:52:50.725Z,81.80
2017-09-03T06:55:17.655Z,82.30
2017-09-03T06:57:44.537Z,82.60
2017-09-03T07:00:11.450Z,82.10
2017-09-03T07:02:38.404Z,81.90
2017-09-03T07:05:05.295Z,82.00
2017-09-03T07:07:32.190Z,81.70
2017-09-03T07:09:59.140Z,81.80
2017-09-03T07:12:26.030Z,81.50
2017-09-03T07:14:52.914Z,81.50
2017-09-03T07:17:19.867Z,81.10
2017-09-03T07:19:46.749Z,81.10
2017-09-03T07:22:13.658Z,80.80
2017-09-03T07:24:40.599Z,81.00
2017-09-03T07:27:07.552Z,81.40
2017-09-03T07:29:34.501Z,81.50
2017-09-03T07:32:01.450Z,81.30
2017-09-03T07:34:28.394Z,81.20
2017-09-03T07:36:55.333Z,81.50
2017-09-03T07:39:22.265Z,81.10
2017-09-03T07:41:49.153Z,80.90
2017-09-03T07:44:16.037Z,81.00
2017-09-03T07:46:43.026Z,80.60
2017-09-03T07:49:09.970Z,79.90
2017-09-03T07:51:36.917Z,80.30
2017-09-03T07:54:03.864Z,80.10
2017-09-03T07:56:30.825Z,79.80
2017-09-03T07:58:57.722Z,79.50
2017-09-03T08:01:24.710Z,79.00
2017-09-03T08:03:51.658Z,78.90
2017-09-03T08:06:18.593Z,78.50
2017-09-03T08:08:45.550Z,78.70
2017-09-03T08:11:12.454Z,78.40
2017-09-03T08:13:39.342Z,77.90
2017-09-03T08:16:06.379Z,76.90
2017-09-03T08:18:33.372Z,77.50
2017-09-03T08:21:00.282Z,77.20
2017-09-03T08:23:27.221Z,76.60
2017-09-03T08:25:54.167Z,76.80
2017-09-03T08:28:21.118Z,76.30
2017-09-03T08:30:48.067Z,76.60
2017-09-03T08:33:15.005Z,76.90
2017-09-03T08:35:41.910Z,76.60
2017-09-03T08:38:08.893Z,76.30
2017-09-03T08:40:35.782Z,76.00
2017-09-03T08:43:02.667Z,75.60
2017-09-03T08:45:29.597Z,75.70
2017-09-03T08:47:56.481Z,75.30
2017-09-03T08:50:23.369Z,75.60
2017-09-03T08:52:50.375Z,75.80
2017-09-03T08:55:17.261Z,73.80
2017-09-03T08:57:44.170Z,74.20
2017-09-03T09:00:11.118Z,74.10
2017-09-03T09:02:38.054Z,73.40
2017-09-03T09:05:05.073Z,74.50
2017-09-03T09:07:31.999Z,74.10
2017-09-03T09:09:58.894Z,74.00
2017-09-03T09:12:25.790Z,74.30
2017-09-03T09:14:52.807Z,73.80
2017-09-03T09:17:19.702Z,73.30
2017-09-03T09:19:46.603Z,72.40
2017-09-03T09:22:13.568Z,71.90
2017-09-03T09:24:40.466Z,71.70
2017-09-03T09:27:07.425Z,73.40
2017-09-03T09:29:34.470Z,73.80
2017-09-03T09:32:01.414Z,73.70
2017-09-03T09:34:28.320Z,73.60
2017-09-03T09:36:55.325Z,73.00
2017-09-03T09:39:22.281Z,73.70
2017-09-03T09:41:49.189Z,73.80
2017-09-03T09:44:16.166Z,73.20
2017-09-03T09:46:43.169Z,73.20
2017-09-03T09:49:10.062Z,73.60
2017-09-03T09:51:37.081Z,73.50
2017-09-03T09:54:04.076Z,73.60
2017-09-03T09:56:30.978Z,73.10
2017-09-03T09:58:57.910Z,72.70
2017-09-03T10:01:24.874Z,72.20
2017-09-03T10:03:51.821Z,72.00
2017-09-03T10:06:18.776Z,72.00
2017-09-03T10:08:45.678Z,71.50
2017-09-03T10:11:12.573Z,70.40
2017-09-03T10:13:39.510Z,70.80
2017-09-03T10:16:06.398Z,71.10
2017-09-03T10:18:33.435Z,70.80
2017-09-03T10:21:00.350Z,70.20
2017-09-03T10:23:27.240Z,71.00
2017-09-03T10:25:54.117Z,70.60
2017-09-03T10:28:21.069Z,69.70
2017-09-03T10:30:48.025Z,70.80
2017-09-03T10:33:14.926Z,69.40
2017-09-03T10:35:41.865Z,69.00
2017-09-03T10:38:08.758Z,68.90
2017-09-03T10:40:35.705Z,69.10
2017-09-03T10:43:02.659Z,68.70
2017-09-03T10:45:29.609Z,68.90
2017-09-03T10:47:56.513Z,67.70
2017-09-03T10:50:23.485Z,67.20
2017-09-03T10:52:50.437Z,68.70
2017-09-03T10:55:17.387Z,66.90
2017-09-03T10:57:44.313Z,67.80
2017-09-03T11:00:11.274Z,67.30
2017-09-03T11:02:38.223Z,66.40
2017-09-03T11:05:05.166Z,64.40
2017-09-03T11:07:32.164Z,64.00
2017-09-03T11:09:59.066Z,65.80
2017-09-03T11:12:26.117Z,64.80
2017-09-03T11:14:53.001Z,65.20
2017-09-03T11:17:19.890Z,66.80
2017-09-03T11:19:46.845Z,64.40
2017-09-03T11:22:13.792Z,66.10
2017-09-03T11:24:40.742Z,65.60
2017-09-03T11:27:07.786Z,66.10
2017-09-03T11:29:34.734Z,66.40
2017-09-03T11:32:01.630Z,65.60
2017-09-03T11:34:28.562Z,64.60
2017-09-03T11:36:55.516Z,63.30
2017-09-03T11:39:22.401Z,63.00
2017-09-03T11:41:49.357Z,63.90
2017-09-03T11:44:16.252Z,64.60
2017-09-03T11:46:43.139Z,64.00
2017-09-03T11:49:10.226Z,63.50
2017-09-03T11:51:37.150Z,64.20
2017-09-03T11:54:04.042Z,64.70
2017-09-03T11:56:31.018Z,65.10
2017-09-03T11:58:57.960Z,64.20
2017-09-03T12:01:24.877Z,64.50
2017-09-03T12:03:51.802Z,63.50
2017-09-03T12:06:18.698Z,63.20
2017-09-03T12:08:45.577Z,63.00
2017-09-03T12:11:12.612Z,62.70
2017-09-03T12:13:39.565Z,62.40
2017-09-03T12:16:06.466Z,62.90
2017-09-03T12:18:33.455Z,61.40
2017-09-03T12:21:00.361Z,62.20
2017-09-03T12:23:27.350Z,62.60
2017-09-03T12:25:54.293Z,61.50
2017-09-03T12:28:21.250Z,60.50
2017-09-03T12:30:48.131Z,60.70
2017-09-03T12:33:15.138Z,60.10
2017-09-03T12:35:42.024Z,59.40
2017-09-03T12:38:08.944Z,58.70
2017-09-03T12:40:35.863Z,56.50
2017-09-03T12:43:02.878Z,58.70
2017-09-03T12:45:29.880Z,59.10
2017-09-03T12:47:56.915Z,59.40
2017-09-03T12:50:23.822Z,58.40
2017-09-03T12:52:50.738Z,58.10
2017-09-03T12:55:17.663Z,58.00
2017-09-03T12:57:44.619Z,58.90
2017-09-03T13:00:11.554Z,57.30
2017-09-03T13:02:38.478Z,58.30
2017-09-03T13:05:05.373Z,57.50
2017-09-03T13:07:32.288Z,56.90
2017-09-03T13:09:59.215Z,56.50
2017-09-03T13:12:26.101Z,56.30
2017-09-03T13:14:52.987Z,55.30
2017-09-03T13:17:19.965Z,56.00
2017-09-03T13:19:46.910Z,55.90
2017-09-03T13:22:13.864Z,55.70
2017-09-03T13:24:40.801Z,54.70
2017-09-03T13:27:07.750Z,56.20
2017-09-03T13:29:34.630Z,57.40
2017-09-03T13:32:01.669Z,57.70
2017-09-03T13:34:28.566Z,56.90
2017-09-03T13:36:55.539Z,57.00
2017-09-03T13:39:22.479Z,56.20
2017-09-03T13:41:49.437Z,55.10
2017-09-03T13:44:16.318Z,56.50
2017-09-03T13:46:43.242Z,57.60
2017-09-03T13:49:10.530Z,57.00
2017-09-03T13:51:37.417Z,57.00
2017-09-03T13:54:04.369Z,55.60
2017-09-03T13:56:31.253Z,55.10
2017-09-03T13:58:58.130Z,56.00
2017-09-03T14:01:25.110Z,56.40
2017-09-03T14:03:52.049Z,56.70
2017-09-03T14:06:18.998Z,55.70
2017-09-03T14:08:45.963Z,56.10
2017-09-03T14:11:12.889Z,56.00
2017-09-03T14:13:39.835Z,56.10
2017-09-03T14:16:06.781Z,56.30
2017-09-03T14:18:33.675Z,55.80
2017-09-03T14:21:00.681Z,55.60
2017-09-03T14:23:27.620Z,55.10
2017-09-03T14:25:54.504Z,56.30
2017-09-03T14:28:21.443Z,55.90
2017-09-03T14:30:48.490Z,55.80
2017-09-03T14:33:15.390Z,55.60
2017-09-03T14:35:42.273Z,56.10
2017-09-03T14:38:09.203Z,55.60
2017-09-03T14:40:36.105Z,56.30
2017-09-03T14:43:03.031Z,56.60
2017-09-03T14:45:30.042Z,56.40
2017-09-03T14:47:57.621Z,56.80
2017-09-03T14:50:24.540Z,56.60
2017-09-03T14:52:51.494Z,56.50
2017-09-03T14:55:18.420Z,56.10
2017-09-03T14:57:45.302Z,56.00
2017-09-03T15:00:12.221Z,56.20
2017-09-03T15:02:39.117Z,56.30
2017-09-03T15:05:06.008Z,56.20
2017-09-03T15:07:32.925Z,55.90
2017-09-03T15:09:59.901Z,56.10
2017-09-03T15:12:26.849Z,56.80
2017-09-03T15:14:53.784Z,55.50
2017-09-03T15:17:20.753Z,56.30
2017-09-03T15:19:47.717Z,57.20
2017-09-03T15:22:14.685Z,56.50
2017-09-03T15:24:41.563Z,56.30
2017-09-03T15:27:08.445Z,56.80
2017-09-03T15:29:35.378Z,57.00
2017-09-03T15:32:02.368Z,56.90
2017-09-03T15:34:29.275Z,56.30
2017-09-03T15:36:56.213Z,56.60
2017-09-03T15:39:23.157Z,56.20
2017-09-03T15:41:50.037Z,56.00
2017-09-03T15:44:17.049Z,55.80
2017-09-03T15:46:43.997Z,56.40
2017-09-03T15:49:10.881Z,56.60
2017-09-03T15:51:37.813Z,56.60
2017-09-03T15:54:04.765Z,56.80
2017-09-03T15:56:31.694Z,56.20
2017-09-03T15:58:58.730Z,55.70
2017-09-03T16:01:25.682Z,55.60
2017-09-03T16:03:52.574Z,55.30
2017-09-03T16:06:19.573Z,53.70
2017-09-03T16:08:46.528Z,52.00
2017-09-03T16:11:13.412Z,50.80
2017-09-03T16:13:40.338Z,49.60
2017-09-03T16:16:07.254Z,48.40
2017-09-03T16:18:34.138Z,47.10
2017-09-03T16:21:01.149Z,46.90
2017-09-03T16:23:28.041Z,46.10
2017-09-03T16:25:54.928Z,46.20
2017-09-03T16:28:21.886Z,45.60
2017-09-03T16:30:48.774Z,45.30
2017-09-03T16:33:15.683Z,45.50
2017-09-03T16:35:42.619Z,45.60
2017-09-03T16:38:09.577Z,45.40
2017-09-03T16:40:36.518Z,45.50
2017-09-03T16:43:03.463Z,45.10
2017-09-03T16:45:30.454Z,45.40
2017-09-03T16:47:57.334Z,45.50
2017-09-03T16:50:24.246Z,45.80
2017-09-03T16:52:51.150Z,45.50
2017-09-03T16:55:18.089Z,45.90
2017-09-03T16:57:45.041Z,45.90
2017-09-03T17:00:11.917Z,46.00
2017-09-03T17:02:38.814Z,46.80
2017-09-03T17:05:05.781Z,47.10
2017-09-03T17:07:32.726Z,47.40
2017-09-03T17:09:59.631Z,47.70
2017-09-03T17:12:26.565Z,48.00
2017-09-03T17:14:53.466Z,48.40
2017-09-03T17:17:20.361Z,48.90
2017-09-03T17:19:47.286Z,49.40
2017-09-03T17:22:14.286Z,49.70
2017-09-03T17:24:41.226Z,50.70
2017-09-03T17:27:08.346Z,51.70
2017-09-03T17:29:35.354Z,52.70
2017-09-03T17:32:02.298Z,53.70
2017-09-03T17:34:29.319Z,54.50
2017-09-03T17:36:56.324Z,55.50
2017-09-03T17:39:23.857Z,56.20
2017-09-03T17:41:50.902Z,56.80
2017-09-03T17:44:18.597Z,57.30
2017-09-03T17:46:46.892Z,57.90
2017-09-03T17:49:13.934Z,58.40
2017-09-03T17:51:40.908Z,59.10
2017-09-03T17:54:07.846Z,59.30
2017-09-03T17:56:34.805Z,59.50
2017-09-03T17:59:01.842Z,60.00
2017-09-03T18:01:28.717Z,60.20
2017-09-03T18:03:55.760Z,61.00
2017-09-03T18:06:22.646Z,60.90
2017-09-03T18:08:49.560Z,61.50
2017-09-03T18:11:16.505Z,62.10
2017-09-03T18:13:43.450Z,62.90
2017-09-03T18:16:10.399Z,63.10
2017-09-03T18:18:37.350Z,63.10
2017-09-03T18:21:04.242Z,63.20
2017-09-03T18:23:31.124Z,63.40
2017-09-03T18:25:58.041Z,63.80
2017-09-03T18:28:24.929Z,64.50
2017-09-03T18:30:51.865Z,64.90
2017-09-03T18:33:18.815Z,64.90
2017-09-03T18:35:45.698Z,65.30
2017-09-03T18:38:12.611Z,65.50
2017-09-03T18:40:39.585Z,65.80
2017-09-03T18:43:06.474Z,65.70
2017-09-03T18:45:33.363Z,65.60
2017-09-03T18:48:00.338Z,65.60
2017-09-03T18:50:27.217Z,66.20
2017-09-03T18:52:54.190Z,66.20
2017-09-03T18:55:21.114Z,65.90
2017-09-03T18:57:48.073Z,66.70
2017-09-03T19:00:14.954Z,67.20
2017-09-03T19:02:41.932Z,67.20
2017-09-03T19:05:08.910Z,67.80
2017-09-03T19:07:35.789Z,68.10
2017-09-03T19:10:02.706Z,68.40
2017-09-03T19:12:29.582Z,68.00
2017-09-03T19:14:56.469Z,69.10
2017-09-03T19:17:23.437Z,69.80
2017-09-03T19:19:50.393Z,70.40
2017-09-03T19:22:17.282Z,70.70
2017-09-03T19:24:44.282Z,71.10
2017-09-03T19:27:11.221Z,71.40
2017-09-03T19:29:38.110Z,72.00
2017-09-03T19:32:05.117Z,72.10
2017-09-03T19:34:32.117Z,72.50
2017-09-03T19:36:58.997Z,72.90
2017-09-03T19:39:25.961Z,73.20
2017-09-03T19:41:52.841Z,73.60
2017-09-03T19:44:19.753Z,73.70
2017-09-03T19:46:46.825Z,73.70
2017-09-03T19:49:13.741Z,73.50
2017-09-03T19:51:40.722Z,73.50
2017-09-03T19:54:07.641Z,73.80
2017-09-03T19:56:34.594Z,73.50
2017-09-03T19:59:01.529Z,73.30
2017-09-03T20:01:28.449Z,73.60
2017-09-03T20:03:55.334Z,73.20
2017-09-03T20:06:22.674Z,73.20
2017-09-03T20:08:49.611Z,73.20
2017-09-03T20:11:16.526Z,73.10
2017-09-03T20:13:43.418Z,73.30
2017-09-03T20:16:10.508Z,73.60
2017-09-03T20:18:37.385Z,73.90
2017-09-03T20:21:04.269Z,73.80
2017-09-03T20:23:31.198Z,73.70
2017-09-03T20:25:58.146Z,73.40
2017-09-03T20:28:25.089Z,73.70
2017-09-03T20:30:52.027Z,73.90
2017-09-03T20:33:18.982Z,74.30
2017-09-03T20:35:45.926Z,74.70
2017-09-03T20:38:12.853Z,74.60
2017-09-03T20:40:39.821Z,74.80
2017-09-03T20:43:06.765Z,74.80
2017-09-03T20:45:33.712Z,74.60
2017-09-03T20:48:00.593Z,74.60
2017-09-03T20:50:27.475Z,74.70
2017-09-03T20:52:54.453Z,74.90
2017-09-03T20:55:21.402Z,74.90
2017-09-03T20:57:48.281Z,74.80
2017-09-03T21:00:15.198Z,74.30
2017-09-03T21:02:42.137Z,74.70
2017-09-03T21:05:09.083Z,74.60
2017-09-03T21:07:36.006Z,74.70
2017-09-03T21:10:02.898Z,74.80
2017-09-03T21:12:29.822Z,75.10
2017-09-03T21:14:56.765Z,75.10
2017-09-03T21:17:23.759Z,74.90
2017-09-03T21:19:50.661Z,74.90
2017-09-03T21:22:17.605Z,74.80
2017-09-03T21:24:44.494Z,74.80
2017-09-03T21:27:11.401Z,74.70
2017-09-03T21:29:38.334Z,74.80
2017-09-03T21:32:05.285Z,74.90
2017-09-03T21:34:32.169Z,74.90
2017-09-03T21:36:59.182Z,75.30
2017-09-03T21:39:26.125Z,75.10
2017-09-03T21:41:53.019Z,75.00
2017-09-03T21:44:19.987Z,74.40
2017-09-03T21:46:46.873Z,74.20
2017-09-03T21:49:13.753Z,74.30
2017-09-03T21:51:40.665Z,74.30
2017-09-03T21:54:07.606Z,74.40
2017-09-03T21:56:34.549Z,74.60
2017-09-03T21:59:01.598Z,74.60
2017-09-03T22:01:28.486Z,74.80
2017-09-03T22:03:56.309Z,75.00
2017-09-03T22:06:23.225Z,75.50
2017-09-03T22:08:50.198Z,75.70
2017-09-03T22:11:17.145Z,76.10
2017-09-03T22:13:44.089Z,76.40
2017-09-03T22:16:11.041Z,76.60
2017-09-03T22:18:37.981Z,76.10
2017-09-03T22:21:04.929Z,75.90
2017-09-03T22:23:31.819Z,76.30
2017-09-03T22:25:58.724Z,76.50
2017-09-03T22:28:25.672Z,76.80
2017-09-03T22:30:52.562Z,76.70
2017-09-03T22:33:19.466Z,76.60
2017-09-03T22:35:46.405Z,76.40
2017-09-03T22:38:13.350Z,76.60
2017-09-03T22:40:40.297Z,76.80
2017-09-03T22:43:07.245Z,76.70
2017-09-03T22:45:34.188Z,76.80
2017-09-03T22:48:01.137Z,76.90
2017-09-03T22:50:28.058Z,77.20
2017-09-03T22:52:54.946Z,77.20
2017-09-03T22:55:21.827Z,77.20
2017-09-03T22:57:48.832Z,77.20
2017-09-03T23:00:15.710Z,77.30
2017-09-03T23:02:42.592Z,77.40
2017-09-03T23:05:09.557Z,77.60
2017-09-03T23:07:36.509Z,77.70
2017-09-03T23:10:03.445Z,77.80
2017-09-03T23:12:30.397Z,77.90
2017-09-03T23:14:57.353Z,77.80
2017-09-03T23:17:24.389Z,77.70
2017-09-03T23:19:51.306Z,77.50
2017-09-03T23:22:18.187Z,77.70
2017-09-03T23:24:45.130Z,77.80
2017-09-03T23:27:12.049Z,77.80
2017-09-03T23:29:39.022Z,77.70
2017-09-03T23:32:05.976Z,77.70
2017-09-03T23:34:32.916Z,78.10
2017-09-03T23:36:59.862Z,78.10
2017-09-03T23:39:26.821Z,78.20
2017-09-03T23:41:53.758Z,78.20
2017-09-03T23:44:20.734Z,78.10
2017-09-03T23:46:47.613Z,78.00
2017-09-03T23:49:14.593Z,77.90
2017-09-03T23:51:41.468Z,77.70
2017-09-03T23:54:08.386Z,77.60
2017-09-03T23:56:35.434Z,77.30
2017-09-03T23:59:02.382Z,77.40
